首页
METAR-TAF:

METAR-TAF

机场 :

阿拉木图国际机场

阿拉木圖, 哈萨克斯坦

纬度: 43-14N, 经度: 076-56E, 海拔: 847米

当前天气观测

该预报发布于39分钟前的00:30 UTC
风速6节,风向
温度 1°C
湿度 75%
气压 1021 hPa
能見度: 5000
多云层高于10000英尺
轻雾

METAR: UAAA 150030Z 17003MPS 5000 BR BKN100 01/M03 Q1021 R88/65D NOSIG

时间: 07:09 (01:09 UTC)

预报

该预报发布于2小时和9分钟前的23:00 UTC
预报有效从15日的 00点(UTC)到 15日的 24点(UTC)
风速6节,风向西北,有时为16节阵风
能见度10公里或以上
多云层高于5000英尺, 积雨云.
阴天层高于10000英尺
短暂存在
从 15日的 00点(UTC)到 15日的 03点(UTC)
能見度: 3100
轻雾
短暂存在
从 15日的 03点(UTC)到 15日的 08点(UTC)
风速8节,风向西
能見度: 5000
多云层高于2000英尺, 积雨云.
阴天层高于10000英尺
轻雾
短暂存在
从 15日的 08点(UTC)到 15日的 12点(UTC)
能見度: 3100
多云层高于1100英尺, 积雨云.
阴天层高于10000英尺
小阵雨, 轻雾
成为
从 15日的 12点(UTC)到 15日的 13点(UTC)
风速6节,风向西南
能見度: 3100
轻雾, 烟
短暂存在
从 15日的 14点(UTC)到 15日的 24点(UTC)
能見度: 1000

TAF: UAAA 142300Z 1500/1524 32003G08MPS 9999 BKN050CB OVC100 TX09/1508Z TNM02/1501Z TEMPO 1500/1503 3100 BR TEMPO 1503/1508 26004MPS 5000 BR BKN020CB OVC100 TEMPO 1508/1512 3100 -SHRA BR BKN011CB OVC100 BECMG 1512/1513 22003MPS 3100 BR FU TEMPO 1514/1524 1000

超过4000个机场的气象观测和天气预报(METAR&TAF报告)。

可查询的气象台以黄色和红色小点在地图上表示。

将鼠标移到小点上方,可查看气象台名称。

然后点击查看天气观测和预报。

如需切换地图:点击带黑十字的绿色按钮放大地图;点击带横线的绿色按钮缩小地图;或者点击绿色箭头查看邻近地区的地图。


METAR-TAF: